Flight Track Log - Related Links

Times and Time Zones

All times are in EDT time to prevent confusion due to time zone crossing. See the EJA929 flight status page for this flight to view local times or setup timezone preferences in your user account.

Time Position Orientation Groundspeed Altitude Reporting Facility
EDT Latitude Longitude Course Direction KTS MPH feet Rate Location/Type
Fri 07:11:07 PM 40.5828 -105.0103 North 240 276 12,000  Level Denver Center
Fri 07:12:09 PM 40.6572 -104.9958 North 272 313 15,000 2,661 Climbing Denver Center
Fri 07:13:11 PM 40.7389 -105.0453 335° Northwest 326 375 17,500 2,032 Climbing Denver Center
Fri 07:14:13 PM 40.8117 -105.1106 326° Northwest 332 382 19,200 2,118 Climbing Denver Center
Fri 07:15:00 PM 45.0933 -115.2227 306° West  Level Estimated
Fri 07:15:27 PM 40.8797 -105.2367 306° West 355 409 22,300  Level Denver Center
Fri 07:16:29 PM 40.9367 -105.3892 296° West 387 445 23,100 726 Climbing Denver Center
Fri 07:17:31 PM 40.9917 -105.5272 298° West 418 481 23,800 1,103 Climbing Denver Center
Fri 07:18:45 PM 41.0489 -105.6797 296° West 436 502 25,600 1,927 Climbing Denver Center
Fri 07:19:48 PM 41.1178 -105.8589 297° West 427 491 28,200 2,016 Climbing Denver Center
Fri 07:20:50 PM 41.1603 -105.9706 297° West 424 488 29,800 2,032 Climbing Denver Center
Fri 07:21:52 PM 41.2269 -106.1492 296° West 425 489 32,400 2,274 Climbing Denver Center
Fri 07:22:54 PM 41.2847 -106.2978 297° West 426 490 34,500 1,984 Climbing Denver Center
Fri 07:23:56 PM 41.3372 -106.4406 296° West 425 489 36,500 1,839 Climbing Denver Center
Fri 07:24:58 PM 41.3842 -106.5658 297° West 423 487 38,300 1,500 Climbing Denver Center
Fri 07:26:00 PM 41.4419 -106.7219 296° West 423 487 39,600 823 Climbing Denver Center
Fri 07:27:02 PM 41.4939 -106.8606 297° West 435 501 40,000 194 Climbing Denver Center
Fri 07:28:04 PM 41.5567 -107.0353 296° West 463 533 40,000  Level Denver Center
Fri 07:29:06 PM 41.6167 -107.1936 297° West 491 565 40,000  Level Denver Center
Fri 07:30:08 PM 41.6864 -107.3869 296° West 513 590 40,000 97 Level Denver Center
Fri 07:31:10 PM 41.7486 -107.5511 297° West 518 596 40,200 677 Climbing Denver Center
Fri 07:32:12 PM 41.8061 -107.7469 292° West 507 583 41,400 1,113 Climbing Denver Center
Fri 07:33:14 PM 41.8444 -107.9125 287° West 492 566 42,500 774 Climbing Denver Center
Fri 07:34:16 PM 41.9197 -108.0917 299° West 495 570 43,000 240 Climbing Denver Center
Fri 07:35:19 PM 41.9850 -108.2489 299° West 503 579 43,000  Level Denver Center
Fri 07:36:35 PM 42.0747 -108.4628 300° West 514 592 43,000  Level Salt Lake Center
Fri 07:37:37 PM 42.1525 -108.6517 299° West 517 595 43,000  Level Salt Lake Center
Fri 07:38:39 PM 42.2186 -108.8117 299° West 515 593 43,000  Level Salt Lake Center
Fri 07:39:41 PM 42.2944 -109.0017 298° West 517 595 43,000  Level Salt Lake Center
Fri 07:40:43 PM 42.3631 -109.1689 299° West 528 608 43,000  Level Salt Lake Center
Fri 07:41:45 PM 42.4411 -109.3617 299° West 527 606 43,000  Level Salt Lake Center
Fri 07:42:47 PM 42.5072 -109.5289 298° West 527 606 43,000  Level Salt Lake Center
Fri 07:43:49 PM 42.5842 -109.7236 298° West 527 606 43,000  Level Salt Lake Center
Fri 07:44:51 PM 42.6508 -109.8894 299° West 525 604 43,000  Level Salt Lake Center
Fri 07:45:53 PM 42.7192 -110.0650 298° West 527 606 43,000  Level Salt Lake Center
Fri 07:46:55 PM 42.7961 -110.2600 298° West 526 605 43,000  Level Salt Lake Center
Fri 07:47:57 PM 42.8619 -110.4289 298° West 526 605 43,000  Level Salt Lake Center
Fri 07:48:59 PM 42.9383 -110.6261 298° West 527 606 43,000  Level Salt Lake Center
Fri 07:50:01 PM 43.0028 -110.7953 298° West 525 604 43,000  Level Salt Lake Center
Fri 07:51:03 PM 43.0786 -110.9922 298° West 523 602 43,000  Level Salt Lake Center
Fri 07:52:05 PM 43.1425 -111.1606 298° West 521 600 43,000  Level Salt Lake Center
Fri 07:53:07 PM 43.2164 -111.3572 297° West 520 598 43,000  Level Salt Lake Center
Fri 07:54:10 PM 43.2797 -111.5258 297° West 520 598 43,000  Level Salt Lake Center
Fri 07:55:12 PM 43.3539 -111.7236 297° West 519 597 43,000  Level Salt Lake Center
Fri 07:56:14 PM 43.4161 -111.8942 297° West 519 597 43,000  Level Salt Lake Center
Fri 07:57:16 PM 43.4786 -112.0642 297° West 519 597 43,000  Level Salt Lake Center
Fri 07:58:18 PM 43.5514 -112.2617 297° West 517 595 43,000  Level Salt Lake Center
Fri 07:59:20 PM 43.6128 -112.4322 296° West 517 595 43,000  Level Salt Lake Center
Fri 08:00:22 PM 43.6833 -112.6283 297° West 512 589 43,000  Level Salt Lake Center
Fri 08:01:24 PM 43.7439 -112.7983 296° West 513 590 43,000  Level Salt Lake Center
Fri 08:02:26 PM 43.8147 -112.9972 296° West 515 593 43,000  Level Salt Lake Center
Fri 08:03:28 PM 43.8750 -113.1689 296° West 517 595 43,000  Level Salt Lake Center
Fri 08:04:30 PM 43.9439 -113.3683 296° West 514 592 43,000  Level Salt Lake Center
Fri 08:05:32 PM 44.0036 -113.5417 296° West 518 596 43,000  Level Salt Lake Center
Fri 08:06:34 PM 44.0747 -113.7397 297° West 514 592 43,000  Level Salt Lake Center
Fri 08:07:36 PM 44.1358 -113.9203 295° West 516 594 43,000  Level Salt Lake Center
Fri 08:08:38 PM 44.1961 -114.1000 295° West 514 592 43,000  Level Salt Lake Center
Fri 08:09:40 PM 44.2567 -114.2764 296° West 507 583 43,000  Level Salt Lake Center
Fri 08:10:42 PM 44.3181 -114.4533 296° West 507 583 43,000  Level Salt Lake Center
Fri 08:12:46 PM 44.4492 -114.8478 295° West 509 586 43,000  Level Salt Lake Center
Fri 08:13:48 PM 44.5078 -115.0272 295° West 510 587 43,000  Level Salt Lake Center
Fri 08:14:50 PM 44.5667 -115.2092 294° West 514 592 43,000  Level Salt Lake Center
Fri 08:15:52 PM 44.6253 -115.3883 295° West 511 588 43,000  Level Salt Lake Center
Fri 08:16:54 PM 44.6839 -115.5675 295° West 509 586 43,000  Level Salt Lake Center
Fri 08:17:56 PM 44.7544 -115.7853 295° West 515 593 43,000  Level Salt Lake Center
Fri 08:18:58 PM 44.8114 -115.9675 294° West 515 593 43,000  Level Salt Lake Center
Fri 08:20:00 PM 44.8689 -116.1506 294° West 518 596 43,000  Level Salt Lake Center
Fri 08:21:02 PM 44.9256 -116.3328 294° West 514 592 43,000  Level Salt Lake Center
Fri 08:22:04 PM 44.9831 -116.5164 294° West 515 593 43,000  Level Salt Lake Center
Fri 08:23:06 PM 45.0508 -116.7364 294° West 512 589 43,000  Level Salt Lake Center
Fri 08:24:08 PM 45.1067 -116.9208 293° West 512 589 43,000  Level Salt Lake Center
Fri 08:25:04 PM 45.1519 -117.0683 294° West 510 587 43,000  Level Seattle Center
Fri 08:26:05 PM 45.2075 -117.2539 293° West 514 592 43,000  Level Seattle Center
Fri 08:27:07 PM 45.2725 -117.4697 293° West 513 590 43,000  Level Seattle Center
Fri 08:28:08 PM 45.3275 -117.6539 293° West 510 587 43,000  Level Seattle Center
Fri 08:29:09 PM 45.3811 -117.8386 293° West 508 585 43,000  Level Seattle Center
Fri 08:30:11 PM 45.4347 -118.0219 293° West 504 580 43,000 -98 Level Seattle Center
Fri 08:31:12 PM 45.4886 -118.2064 293° West 507 583 42,800 -1,171 Descending Seattle Center
Fri 08:32:14 PM 45.5400 -118.3861 292° West 498 573 40,600 -1,854 Descending Seattle Center
Fri 08:33:15 PM 45.5889 -118.5550 293° West 476 548 39,000 -787 Descending Seattle Center
Fri 08:34:16 PM 45.6450 -118.7528 292° West 455 524 39,000  Level Seattle Center
Fri 08:35:18 PM 45.6928 -118.9181 293° West 453 521 39,000  Level Seattle Center
Fri 08:36:19 PM 45.7706 -119.0633 308° West 472 543 39,000 -49 Level Seattle Center
Fri 08:37:21 PM 45.8517 -119.1994 311° West 457 526 38,900 -976 Descending Seattle Center
Fri 08:38:22 PM 45.9297 -119.3325 310° West 445 512 37,000 -1,426 Descending Seattle Center
Fri 08:39:23 PM 46.0064 -119.4636 310° West 432 497 36,000 -488 Descending Seattle Center
Fri 08:40:25 PM 46.0828 -119.5942 310° West 430 495 36,000  Level Seattle Center
Fri 08:41:26 PM 46.1631 -119.7322 310° West 445 512 36,000  Level Seattle Center
Fri 08:42:28 PM 46.2592 -119.8989 310° West 451 519 36,000  Level Seattle Center
Fri 08:43:29 PM 46.3386 -120.0397 309° West 453 521 36,000  Level Seattle Center
Fri 08:44:30 PM 46.4178 -120.1769 310° West 449 517 36,000  Level Seattle Center
Fri 08:45:32 PM 46.4972 -120.3161 310° West 449 517 36,000 -293 Level Seattle Center
Fri 08:46:33 PM 46.5744 -120.4575 308° West 449 517 35,400 -1,230 Descending Seattle Center
Fri 08:47:34 PM 46.6475 -120.6078 305° West 454 522 33,500 -2,390 Descending Seattle Center
Fri 08:48:36 PM 46.7175 -120.7564 305° West 450 518 30,500 -2,829 Descending Seattle Center
Fri 08:49:37 PM 46.7850 -120.8992 305° West 433 498 27,700 -3,098 Descending Seattle Center
Fri 08:50:38 PM 46.8658 -121.0750 304° West 436 502 24,200 -2,976 Descending Seattle Center
Fri 08:51:40 PM 46.9292 -121.2081 305° West 411 473 21,600 -2,439 Descending Seattle Center
Fri 08:52:41 PM 46.9889 -121.3356 305° West 386 444 19,200 -2,410 Descending Seattle Center
Fri 08:53:42 PM 47.0467 -121.4622 304° West 368 423 16,700 -2,480 Descending Seattle Center
Fri 08:53:56 PM 47.0619 -121.4881 311° West 347 399 16,100 -774 Descending Seattle Center
Fri 08:54:44 PM 47.1039 -121.5822 303° West 336 387 15,900 -590 Descending Seattle Center
Fri 08:54:57 PM 47.1136 -121.5994 310° West 332 382 15,500 -2,459 Descending Seattle Center
Fri 08:55:45 PM 47.1567 -121.6967 303° West 339 390 13,400 -2,600 Descending Seattle Center
Fri 08:55:57 PM 47.1689 -121.7253 302° West 338 389 12,900 -1,672 Descending Seattle Center
Fri 08:56:46 PM 47.2092 -121.8086 305° West 334 384 11,700 -1,527 Descending Seattle Center
Fri 08:56:52 PM 47.2153 -121.8269 296° West 332 382 11,500 -1,233 Descending Seattle Center
Fri 08:57:59 PM 47.2700 -121.9436 305° West 316 364 10,200 -769 Descending Seattle Center
Fri 08:58:49 PM 47.3111 -122.0325 304° West 317 365 10,000 -218 Descending Seattle Center
Fri 08:58:54 PM 47.3150 -122.0397 308° West 315 362 10,000  Level Seattle Center
Fri 08:59:50 PM 47.3589 -122.1381 303° West 313 360 10,000  Level Seattle Center
Fri 08:59:55 PM 47.3592 -122.1428 275° West 299 344 10,000 -300 Level Seattle Center
Fri 09:00:50 PM 47.4181 -122.1822 336° Northwest 254 292 9,700 -321 Descending Seattle Center
Fri 09:00:51 PM 47.4181 -122.1822 336° Northwest 263 303 9,700 -1,839 Level Seattle Center
Fri 09:01:52 PM 47.4944 -122.1867 358° North 259 298 7,800 -1,818 Descending Seattle Center
Fri 09:01:57 PM 47.4992 -122.1864 North 258 297 7,700 -1,548 Descending Seattle Center
Fri 09:02:54 PM 47.5653 -122.1872 360° North 256 295 6,200 -1,574 Descending Seattle Center
Fri 09:02:58 PM 47.5706 -122.1864 North 256 295 6,100 -1,180 Descending Seattle Center
Fri 09:03:55 PM 47.6339 -122.1886 359° North 249 287 5,000 -1,100 Descending Seattle Center
Fri 09:03:58 PM 47.6397 -122.1872 North 246 283 5,000 -492 Level Seattle Center
Fri 09:04:56 PM 47.6967 -122.2156 341° North 243 280 4,500 -627 Descending Seattle Center
Fri 09:05:05 PM 47.6994 -122.2300 286° West 239 275 4,300 -492 Descending Seattle Center
Fri 09:05:57 PM 47.6819 -122.3078 252° West 247 284 4,000 -387 Descending Seattle Center
Fri 09:06:07 PM 47.6719 -122.3142 203° Southwest 252 290 3,900 -771 Descending Seattle Center
Fri 09:07:07 PM 47.6042 -122.3189 183° South 237 273 3,100 -850 Descending Seattle Center
Fri 09:08:00 PM 47.5586 -122.3175 179° South 176 203 2,300 -882 Descending Seattle Center
Fri 09:08:15 PM 47.5489 -122.3200 190° South 151 174 2,100 -787 Descending Seattle Center
Fri 09:09:01 PM 47.5178 -122.3178 177° South 148 170 1,500 -778 Descending Seattle Center
Fri 09:09:09 PM 47.5106 -122.3181 181° South 134 154 1,400 -590 Descending Seattle Center
Fri 09:10:02 PM 47.4808 -122.3181 180° South 131 151 900 -581 Descending Seattle Center
Fri 09:10:11 PM 47.4750 -122.3181 180° South 127 146 800 -484 Descending Seattle Center
Fri 09:11:04 PM 47.4492 -122.3186 181° South 129 148 400 -453 Descending Seattle Center

Login

Don't have an account? Register now (free) for customized features, flight alerts, and more!